Hickman, Kentucky
Current Conditions -  °F | °C
As of 2:55 PM on Thursday 18 Dec 2014 (Local Time) from KUCY Reporting Station
Overcast Overcast  
Wind Chill: 33°   Ceiling: 4600
Heat Index: 37°   Visibility: 10mi
Dew Point: 34°   Wind: 6mph
Humidity: 87%   Direction: 60°ENE
Pressure: 30.2"   Gusts: NA
Location:  36.57°N, 89.19°W
Report Text: KUCY 182055Z AUTO 06005KT 10SM FEW017 OVC046 03/01 A3020 RMK
Loading
Personal Weather Stations






























Interactive Weather Map New forecast layout! Learn more

10-Day Weather Forecast

Advertisements
Track Severe Weather on mobile